Terminal Aerodrome Forecast
Issued by NWS

Home | Current Version | Previous Version | Text Only | Print | Product List | Glossary On
Versions: 1 2 3 4 5 6 7 8 9 10 11 12 13
000
FTUS41 KBTV 042325
TAFRUT
TAF
KRUT 042325Z 0500/0524 24006KT P6SM BKN090
     FM050600 24005KT P6SM VCSH OVC035
     FM051000 25005KT P6SM BKN100
     FM051400 33006KT P6SM SCT200
      AMD LTD TO CLD VIS AND WIND=

USA.gov is the U.S. government's official web portal to all federal, state and local government web resources and services.